createdAt,value
2022-12-08T00:02:52.543Z,2.80
2022-12-08T00:08:13.248Z,2.80
2022-12-08T00:13:15.130Z,2.90
2022-12-08T00:18:17.157Z,2.90
2022-12-08T00:23:18.962Z,2.90
2022-12-08T00:28:20.822Z,3.00
2022-12-08T00:33:22.861Z,3.00
2022-12-08T00:38:24.655Z,2.90
2022-12-08T00:43:26.818Z,2.80
2022-12-08T00:48:28.727Z,2.70
2022-12-08T00:53:31.745Z,2.60
2022-12-08T00:58:33.530Z,2.50
2022-12-08T01:03:35.471Z,2.40
2022-12-08T01:08:38.209Z,2.40
2022-12-08T01:13:40.414Z,2.40
2022-12-08T01:18:42.430Z,2.40
2022-12-08T01:23:44.685Z,2.40
2022-12-08T01:28:47.153Z,2.50
2022-12-08T01:33:49.441Z,2.50
2022-12-08T01:38:52.911Z,2.50
2022-12-08T01:43:59.122Z,2.50
2022-12-08T01:49:09.149Z,2.50
2022-12-08T01:54:12.657Z,2.50
2022-12-08T01:59:14.555Z,2.40
2022-12-08T02:04:16.346Z,2.40
2022-12-08T02:09:20.060Z,2.30
2022-12-08T02:14:21.969Z,2.40
2022-12-08T02:19:47.081Z,2.40
2022-12-08T02:25:11.102Z,2.40
2022-12-08T02:30:20.562Z,2.30
2022-12-08T02:35:31.136Z,2.30
2022-12-08T02:40:39.787Z,2.30
2022-12-08T02:45:49.191Z,2.30
2022-12-08T02:50:51.005Z,2.30
2022-12-08T02:56:16.342Z,2.30
2022-12-08T03:01:47.300Z,2.20
2022-12-08T03:07:11.891Z,2.00
2022-12-08T03:12:37.116Z,1.90
2022-12-08T03:17:45.525Z,1.70
2022-12-08T03:22:49.555Z,1.60
2022-12-08T03:27:52.014Z,1.70
2022-12-08T03:33:00.955Z,1.60
2022-12-08T03:38:07.515Z,1.60
2022-12-08T03:43:09.635Z,1.50
2022-12-08T03:48:11.438Z,1.40
2022-12-08T03:53:13.232Z,1.50
2022-12-08T03:58:15.077Z,1.40
2022-12-08T04:03:16.905Z,1.20
2022-12-08T04:08:19.039Z,1.20
2022-12-08T04:13:20.891Z,1.10
2022-12-08T04:18:23.067Z,0.90
2022-12-08T04:23:25.211Z,0.80
2022-12-08T04:28:29.363Z,0.70
2022-12-08T04:33:31.470Z,0.70
2022-12-08T04:38:34.067Z,0.90
2022-12-08T04:43:36.726Z,0.80
2022-12-08T04:48:40.259Z,0.90
2022-12-08T04:53:46.302Z,0.80
2022-12-08T04:58:48.676Z,0.80
2022-12-08T05:03:50.608Z,0.70
2022-12-08T05:08:52.400Z,0.60
2022-12-08T05:13:54.318Z,0.60
2022-12-08T05:18:56.251Z,0.50
2022-12-08T05:23:58.048Z,0.40
2022-12-08T05:28:59.910Z,0.30
2022-12-08T05:34:03.275Z,0.20
2022-12-08T05:39:05.548Z,0.10
2022-12-08T05:44:07.529Z,0.10
2022-12-08T05:49:09.328Z,0.00
2022-12-08T05:54:11.148Z,0.00
2022-12-08T05:59:13.018Z,-0.10
2022-12-08T06:04:14.833Z,0.30
2022-12-08T06:09:16.633Z,0.30
2022-12-08T06:14:18.474Z,0.20
2022-12-08T06:19:20.325Z,0.10
2022-12-08T06:24:22.635Z,0.10
2022-12-08T06:29:24.662Z,0.10
2022-12-08T06:34:26.539Z,0.30
2022-12-08T06:39:28.441Z,0.40
2022-12-08T06:44:30.249Z,0.30
2022-12-08T06:49:32.357Z,0.20
2022-12-08T06:54:34.291Z,0.10
2022-12-08T06:59:36.206Z,0.20
2022-12-08T07:04:38.015Z,0.30
2022-12-08T07:09:39.844Z,0.10
2022-12-08T07:14:41.700Z,0.20
2022-12-08T07:19:43.690Z,0.00
2022-12-08T07:24:45.546Z,0.20
2022-12-08T07:29:47.339Z,0.40
2022-12-08T07:34:49.214Z,0.90
2022-12-08T07:39:51.026Z,1.00
2022-12-08T07:44:52.972Z,0.80
2022-12-08T07:49:54.815Z,1.10
2022-12-08T07:54:56.609Z,1.50
2022-12-08T07:59:58.394Z,1.60
2022-12-08T08:05:00.332Z,1.70
2022-12-08T08:10:02.669Z,2.10
2022-12-08T08:15:09.854Z,2.00
2022-12-08T08:20:12.236Z,1.80
2022-12-08T08:25:15.011Z,1.90
2022-12-08T08:30:20.713Z,2.00
2022-12-08T08:35:22.887Z,2.40
2022-12-08T08:40:24.893Z,2.80
2022-12-08T08:45:26.802Z,3.10
2022-12-08T08:50:32.939Z,3.30
2022-12-08T08:55:40.032Z,3.50
2022-12-08T09:00:42.082Z,3.70
2022-12-08T09:05:44.037Z,3.60
2022-12-08T09:10:45.994Z,3.80
2022-12-08T09:15:47.936Z,4.00
2022-12-08T09:20:49.767Z,3.90
2022-12-08T09:25:51.569Z,4.00
2022-12-08T09:30:53.387Z,4.00
2022-12-08T09:35:55.372Z,3.90
2022-12-08T09:40:58.278Z,3.60
2022-12-08T09:46:02.090Z,3.60
2022-12-08T09:51:05.519Z,3.90
2022-12-08T09:56:12.197Z,4.00
2022-12-08T10:01:14.707Z,3.80
2022-12-08T10:06:29.812Z,3.90
2022-12-08T10:11:38.159Z,4.00
2022-12-08T10:16:44.420Z,3.80
2022-12-08T10:21:46.378Z,3.80
2022-12-08T10:26:49.190Z,3.70
2022-12-08T10:31:51.129Z,3.70
2022-12-08T10:36:58.538Z,3.80
2022-12-08T10:42:17.772Z,3.80
2022-12-08T10:47:22.310Z,3.90
2022-12-08T10:52:24.940Z,3.90
2022-12-08T10:57:26.770Z,3.90
2022-12-08T11:02:28.648Z,3.80
2022-12-08T11:07:30.548Z,3.80
2022-12-08T11:12:32.406Z,3.70
2022-12-08T11:17:41.745Z,3.80
2022-12-08T11:22:46.505Z,3.80
2022-12-08T11:27:54.526Z,3.80
2022-12-08T11:33:11.791Z,3.90
2022-12-08T11:38:21.691Z,3.80
2022-12-08T11:43:35.485Z,3.80
2022-12-08T11:48:41.016Z,3.80
2022-12-08T11:53:51.862Z,3.80
2022-12-08T11:58:58.010Z,3.80
2022-12-08T12:04:21.599Z,3.70
2022-12-08T12:09:42.121Z,3.70
2022-12-08T12:15:20.635Z,3.70
2022-12-08T12:20:50.322Z,3.70
2022-12-08T12:26:07.706Z,3.70
2022-12-08T12:31:13.176Z,3.70
2022-12-08T12:36:15.914Z,3.60
2022-12-08T12:41:35.965Z,3.60
2022-12-08T12:46:48.361Z,3.60
2022-12-08T12:51:55.486Z,3.60
2022-12-08T12:57:18.482Z,3.60
2022-12-08T13:02:40.692Z,3.60
2022-12-08T13:07:52.586Z,3.60
2022-12-08T13:13:12.556Z,3.50
2022-12-08T13:18:34.048Z,3.40
2022-12-08T13:23:38.826Z,3.30
2022-12-08T13:28:59.023Z,3.10
2022-12-08T13:34:04.113Z,3.00
2022-12-08T13:39:07.422Z,3.00
2022-12-08T13:45:18.568Z,3.00
2022-12-08T13:56:59.581Z,2.90
2022-12-08T14:01:18.345Z,2.80
2022-12-08T14:06:29.741Z,2.80
2022-12-08T14:11:36.913Z,2.80
2022-12-08T14:16:41.761Z,2.90
2022-12-08T14:22:00.455Z,2.80
2022-12-08T14:27:07.888Z,2.70
2022-12-08T14:32:31.441Z,2.60
2022-12-08T14:37:34.957Z,2.50
2022-12-08T14:42:46.052Z,2.50
2022-12-08T14:47:48.642Z,2.50
2022-12-08T14:52:50.621Z,2.50
2022-12-08T14:57:52.444Z,2.50
2022-12-08T15:02:56.211Z,2.50
2022-12-08T15:08:04.012Z,2.50
2022-12-08T15:13:22.377Z,2.40
2022-12-08T15:18:35.585Z,2.20
2022-12-08T15:23:44.819Z,2.20
2022-12-08T15:28:46.652Z,2.20
2022-12-08T15:33:48.530Z,2.10
2022-12-08T15:38:50.303Z,2.10
2022-12-08T15:43:52.194Z,2.00
2022-12-08T15:48:58.131Z,1.90
2022-12-08T15:54:00.167Z,2.20
2022-12-08T15:59:01.973Z,1.90
2022-12-08T16:09:38.521Z,2.10
2022-12-08T16:20:05.906Z,1.90
2022-12-08T16:25:24.528Z,2.00
2022-12-08T16:30:26.681Z,2.10
2022-12-08T16:35:28.735Z,1.90
2022-12-08T16:40:30.654Z,1.80
2022-12-08T16:45:32.492Z,1.80
2022-12-08T16:50:35.354Z,1.70
2022-12-08T16:55:37.203Z,1.70
2022-12-08T17:00:39.094Z,1.80
2022-12-08T17:05:47.987Z,1.80
2022-12-08T17:11:07.830Z,1.90
2022-12-08T17:16:32.311Z,1.70
2022-12-08T17:21:38.401Z,1.80
2022-12-08T17:26:45.863Z,1.70
2022-12-08T17:31:51.563Z,1.70
2022-12-08T17:36:54.797Z,1.70
2022-12-08T17:42:06.316Z,1.60
2022-12-08T17:47:08.769Z,1.50
2022-12-08T17:52:12.142Z,1.70
2022-12-08T17:57:14.777Z,1.80
2022-12-08T18:02:17.878Z,1.70
2022-12-08T18:07:20.695Z,1.60
2022-12-08T18:12:26.966Z,1.70
2022-12-08T18:17:29.712Z,1.80
2022-12-08T18:22:32.512Z,1.70
2022-12-08T18:27:41.427Z,1.70
2022-12-08T18:32:46.361Z,1.60
2022-12-08T18:37:52.685Z,1.60
2022-12-08T18:42:55.535Z,1.60
2022-12-08T18:47:58.585Z,1.60
2022-12-08T18:53:01.691Z,1.60
2022-12-08T18:58:06.223Z,1.60
2022-12-08T19:03:09.534Z,1.50
2022-12-08T19:08:12.437Z,1.50
2022-12-08T19:13:15.238Z,1.40
2022-12-08T19:18:18.123Z,1.50
2022-12-08T19:23:23.747Z,1.50
2022-12-08T19:28:26.492Z,1.60
2022-12-08T19:33:32.029Z,1.60
2022-12-08T19:38:56.359Z,1.40
2022-12-08T19:44:17.196Z,1.50
2022-12-08T19:49:20.184Z,1.40
2022-12-08T19:54:23.079Z,1.40
2022-12-08T19:59:30.588Z,1.40
2022-12-08T20:04:33.743Z,1.20
2022-12-08T20:09:36.880Z,1.20
2022-12-08T20:14:45.461Z,1.20
2022-12-08T20:19:52.295Z,1.30
2022-12-08T20:25:00.712Z,1.40
2022-12-08T20:30:16.707Z,1.50
2022-12-08T20:35:21.109Z,1.40
2022-12-08T20:40:25.313Z,1.30
2022-12-08T20:45:31.403Z,1.30
2022-12-08T20:50:34.454Z,1.30
2022-12-08T20:55:52.966Z,1.40
2022-12-08T21:00:56.043Z,1.40
2022-12-08T21:05:59.383Z,1.30
2022-12-08T21:11:03.547Z,1.30
2022-12-08T21:16:09.732Z,1.10
2022-12-08T21:21:14.725Z,1.10
2022-12-08T21:26:20.794Z,1.20
2022-12-08T21:31:37.011Z,1.30
2022-12-08T21:36:40.022Z,1.40
2022-12-08T21:42:01.621Z,1.40
2022-12-08T21:47:05.546Z,1.60
2022-12-08T21:52:08.636Z,1.60
2022-12-08T21:57:13.158Z,1.60
2022-12-08T22:02:22.024Z,1.50
2022-12-08T22:07:25.709Z,1.50
2022-12-08T22:12:28.796Z,1.60
2022-12-08T22:17:31.937Z,1.70
2022-12-08T22:22:35.817Z,1.80
2022-12-08T22:27:39.684Z,1.90
2022-12-08T22:32:42.680Z,1.90
2022-12-08T22:37:49.347Z,1.70
2022-12-08T22:42:52.269Z,1.50
2022-12-08T22:47:55.242Z,1.50
2022-12-08T22:52:58.346Z,1.50
2022-12-08T22:58:01.757Z,1.40
2022-12-08T23:03:06.982Z,1.60
2022-12-08T23:08:12.579Z,1.80
2022-12-08T23:13:14.964Z,1.70
2022-12-08T23:18:21.196Z,1.60
2022-12-08T23:23:22.935Z,1.80
2022-12-08T23:28:24.982Z,1.90
2022-12-08T23:33:26.739Z,1.70
2022-12-08T23:38:28.505Z,1.60
2022-12-08T23:43:30.237Z,1.50
2022-12-08T23:48:34.565Z,1.50
2022-12-08T23:53:36.930Z,1.40
2022-12-08T23:58:39.534Z,1.40
